Main page
METAR-TAF:

METAR-TAF

Airports :

Gaines County Airport

Seminole, Texas, United States

latitude: 32-40-31N, longitude: 102-39-09W, elevation: 3313 ft

Current weather observation

The report was made 15 minutes ago, at 03:35 UTC
Wind 3 mph from the East/Northeast
Temperature 77°F
Humidity 26%
Pressure 29.93 in. Hg
Visibility: 10 miles
Clear sky

METAR: KGNC 260335Z AUTO 07003KT 10SM CLR 25/04 A2993 RMK AO2 T02530035

Time: 22:50 (03:50 UTC)


TAF: missing

Weather observations and forecasts of more than 4000 airports (METAR and TAF reports).

The available stations are represented by yellow and red dots on the map.

Hover mouse over dot to see the name of the station.

Then click to see weather observations and forecasts.

To change the map : click on the green buttons with a black cross to zoom in, on the green button with a dash to zoom out, or on the green arrows for adjacent maps.


METAR-TAF: